createdAt,value
2023-12-27T00:09:16.121Z,1013.8
2023-12-27T00:14:15.811Z,1013.8
2023-12-27T00:19:15.894Z,1013.7
2023-12-27T00:24:15.713Z,1013.5
2023-12-27T00:29:15.874Z,1013.5
2023-12-27T00:34:15.691Z,1013.5
2023-12-27T00:39:15.852Z,1013.4
2023-12-27T00:44:15.660Z,1013.3
2023-12-27T00:49:15.905Z,1013.2
2023-12-27T00:54:15.713Z,1013.1
2023-12-27T00:59:15.843Z,1013.1
2023-12-27T01:04:15.809Z,1013.0
2023-12-27T01:09:15.882Z,1012.9
2023-12-27T01:14:15.660Z,1012.9
2023-12-27T01:19:15.981Z,1012.7
2023-12-27T01:24:15.692Z,1012.7
2023-12-27T01:29:15.838Z,1012.5
2023-12-27T01:34:22.575Z,1012.4
2023-12-27T01:39:15.877Z,1012.2
2023-12-27T01:44:15.678Z,1012.2
2023-12-27T01:49:15.979Z,1012.1
2023-12-27T01:54:15.744Z,1012.1
2023-12-27T01:59:15.856Z,1011.9
2023-12-27T02:04:15.787Z,1011.8
2023-12-27T02:09:15.923Z,1011.7
2023-12-27T02:14:15.670Z,1011.6
2023-12-27T02:19:15.947Z,1011.6
2023-12-27T02:24:15.705Z,1011.6
2023-12-27T02:29:15.845Z,1011.5
2023-12-27T02:34:15.891Z,1011.4
2023-12-27T02:39:15.863Z,1011.2
2023-12-27T02:44:15.682Z,1011.1
2023-12-27T02:49:15.898Z,1011.0
2023-12-27T02:54:15.731Z,1010.9
2023-12-27T02:59:15.841Z,1010.7
2023-12-27T03:04:15.667Z,1010.6
2023-12-27T03:09:15.850Z,1010.5
2023-12-27T03:14:15.696Z,1010.3
2023-12-27T03:19:15.947Z,1010.3
2023-12-27T03:24:15.742Z,1010.2
2023-12-27T03:29:15.850Z,1009.9
2023-12-27T03:34:15.863Z,1009.9
2023-12-27T03:39:15.922Z,1009.8
2023-12-27T03:44:15.701Z,1009.6
2023-12-27T03:49:15.994Z,1009.6
2023-12-27T03:54:15.749Z,1009.5
2023-12-27T03:59:15.749Z,1009.4
2023-12-27T04:04:15.753Z,1009.2
2023-12-27T04:09:15.773Z,1009.2
2023-12-27T04:14:15.654Z,1009.1
2023-12-27T04:19:16.097Z,1009.0
2023-12-27T04:29:15.888Z,1008.8
2023-12-27T04:34:15.878Z,1008.6
2023-12-27T04:39:15.797Z,1008.4
2023-12-27T04:44:15.678Z,1008.3
2023-12-27T04:49:16.116Z,1008.1
2023-12-27T04:54:15.689Z,1008.0
2023-12-27T04:59:15.902Z,1007.8
2023-12-27T05:04:15.812Z,1007.7
2023-12-27T05:09:15.936Z,1007.7
2023-12-27T05:14:15.697Z,1007.6
2023-12-27T05:19:15.978Z,1007.4
2023-12-27T05:24:15.729Z,1007.3
2023-12-27T05:29:15.898Z,1007.1
2023-12-27T05:34:15.811Z,1006.9
2023-12-27T05:39:15.921Z,1006.6
2023-12-27T05:44:15.692Z,1006.5
2023-12-27T05:49:16.129Z,1006.4
2023-12-27T05:54:15.930Z,1006.3
2023-12-27T05:59:15.771Z,1006.2
2023-12-27T06:04:15.735Z,1006.1
2023-12-27T06:09:15.791Z,1005.9
2023-12-27T06:14:15.742Z,1005.9
2023-12-27T06:19:15.835Z,1005.7
2023-12-27T06:24:15.764Z,1005.6
2023-12-27T06:29:15.772Z,1005.5
2023-12-27T06:34:15.821Z,1005.3
2023-12-27T06:39:15.775Z,1005.2
2023-12-27T06:44:15.718Z,1005.2
2023-12-27T06:49:15.805Z,1005.0
2023-12-27T06:54:15.753Z,1004.9
2023-12-27T06:59:15.782Z,1004.8
2023-12-27T07:04:15.758Z,1004.6
2023-12-27T07:09:15.802Z,1004.4
2023-12-27T07:14:15.805Z,1004.2
2023-12-27T07:19:16.083Z,1004.1
2023-12-27T07:34:15.789Z,1003.5
2023-12-27T07:39:15.823Z,1003.4
2023-12-27T07:44:15.716Z,1003.1
2023-12-27T07:54:15.794Z,1002.8
2023-12-27T07:59:15.934Z,1002.6
2023-12-27T08:04:15.791Z,1002.5
2023-12-27T08:09:15.975Z,1002.1
2023-12-27T08:14:15.728Z,1001.9
2023-12-27T08:19:15.881Z,1001.8
2023-12-27T08:44:15.730Z,1001.0
2023-12-27T08:54:15.740Z,1000.8
2023-12-27T08:59:15.788Z,1000.6
2023-12-27T09:04:15.836Z,1000.4
2023-12-27T09:09:15.804Z,1000.2
2023-12-27T09:14:15.747Z,1000.2
2023-12-27T09:19:15.864Z,1000.0
2023-12-27T09:24:15.821Z,999.8
2023-12-27T09:29:15.782Z,999.6
2023-12-27T09:39:15.851Z,998.9
2023-12-27T09:44:15.715Z,998.9
2023-12-27T09:49:15.894Z,998.8
2023-12-27T09:54:15.757Z,998.7
2023-12-27T10:09:17.731Z,998.4
2023-12-27T10:19:15.813Z,997.9
2023-12-27T10:24:15.729Z,997.7
2023-12-27T10:29:15.956Z,997.6
2023-12-27T10:34:15.844Z,997.4
2023-12-27T10:39:17.059Z,997.2
2023-12-27T10:44:15.736Z,997.1
2023-12-27T10:49:15.848Z,997.0
2023-12-27T10:54:15.738Z,996.8
2023-12-27T10:59:15.941Z,996.6
2023-12-27T11:09:16.026Z,996.1
2023-12-27T11:14:15.749Z,996.1
2023-12-27T11:19:16.005Z,995.8
2023-12-27T11:24:15.804Z,995.6
2023-12-27T11:29:15.956Z,995.5
2023-12-27T11:34:15.856Z,995.2
2023-12-27T11:39:15.806Z,995.0
2023-12-27T11:44:15.779Z,994.8
2023-12-27T11:49:15.885Z,994.7
2023-12-27T11:54:15.799Z,994.5
2023-12-27T12:04:15.798Z,994.2
2023-12-27T12:09:15.958Z,994.0
2023-12-27T12:14:15.735Z,993.9
2023-12-27T12:24:15.825Z,993.4
2023-12-27T12:29:15.796Z,993.2
2023-12-27T12:39:15.844Z,993.0
2023-12-27T12:44:15.837Z,993.1
2023-12-27T12:49:16.039Z,992.9
2023-12-27T12:59:15.952Z,992.6
2023-12-27T13:04:15.779Z,992.3
2023-12-27T13:09:15.994Z,992.2
2023-12-27T13:19:15.988Z,991.6
2023-12-27T13:29:15.946Z,990.8
2023-12-27T13:34:15.826Z,990.4
2023-12-27T13:39:15.989Z,990.6
2023-12-27T13:44:15.750Z,990.5
2023-12-27T13:49:16.047Z,990.3
2023-12-27T13:54:24.571Z,989.9
2023-12-27T13:59:15.977Z,989.8
2023-12-27T14:04:15.829Z,989.2
2023-12-27T14:09:15.897Z,989.1
2023-12-27T14:24:15.772Z,989.0
2023-12-27T14:39:15.961Z,988.5
2023-12-27T14:49:16.002Z,988.5
2023-12-27T14:54:15.851Z,988.0
2023-12-27T15:04:15.813Z,987.8
2023-12-27T15:09:18.381Z,987.6
2023-12-27T15:14:15.774Z,987.5
2023-12-27T15:19:16.121Z,987.5
2023-12-27T15:24:15.757Z,987.2
2023-12-27T15:29:15.949Z,987.4
2023-12-27T15:34:15.872Z,987.3
2023-12-27T15:39:15.960Z,987.2
2023-12-27T15:44:15.831Z,987.1
2023-12-27T15:49:16.132Z,987.1
2023-12-27T15:54:15.800Z,987.2
2023-12-27T15:59:15.958Z,987.1
2023-12-27T16:04:17.147Z,987.1
2023-12-27T16:14:15.762Z,987.0
2023-12-27T16:19:16.069Z,986.8
2023-12-27T16:24:15.775Z,986.7
2023-12-27T16:39:15.963Z,987.1
2023-12-27T16:49:15.993Z,987.2
2023-12-27T16:54:15.916Z,987.4
2023-12-27T17:09:16.022Z,987.9
2023-12-27T17:14:15.777Z,988.0
2023-12-27T17:19:16.084Z,988.1
2023-12-27T17:24:15.820Z,988.2
2023-12-27T17:29:15.940Z,988.5
2023-12-27T17:34:15.827Z,988.5
2023-12-27T17:39:15.979Z,988.9
2023-12-27T17:44:15.768Z,988.9
2023-12-27T17:49:16.162Z,989.2
2023-12-27T17:54:15.796Z,989.2
2023-12-27T17:59:15.828Z,989.3
2023-12-27T18:04:15.811Z,989.3
2023-12-27T18:14:15.764Z,989.6
2023-12-27T18:24:15.776Z,989.9
2023-12-27T18:29:15.823Z,990.0
2023-12-27T18:39:15.837Z,990.3
2023-12-27T18:49:16.265Z,990.6
2023-12-27T18:54:15.788Z,990.8
2023-12-27T18:59:15.856Z,990.9
2023-12-27T19:04:15.807Z,991.0
2023-12-27T19:09:16.008Z,991.1
2023-12-27T19:19:16.091Z,991.1
2023-12-27T19:24:15.810Z,991.1
2023-12-27T19:29:15.812Z,991.3
2023-12-27T19:34:15.869Z,991.3
2023-12-27T19:44:15.737Z,991.1
2023-12-27T19:49:16.023Z,991.0
2023-12-27T19:54:15.815Z,991.1
2023-12-27T19:59:15.816Z,991.0
2023-12-27T20:04:15.908Z,991.2
2023-12-27T20:09:16.014Z,991.2
2023-12-27T20:14:15.799Z,991.1
2023-12-27T20:19:16.283Z,991.2
2023-12-27T20:24:15.847Z,991.0
2023-12-27T20:29:15.988Z,991.0
2023-12-27T20:34:15.894Z,990.9
2023-12-27T20:39:15.935Z,991.2
2023-12-27T20:44:15.780Z,991.2
2023-12-27T20:49:15.915Z,991.2
2023-12-27T20:54:15.830Z,991.2
2023-12-27T20:59:15.972Z,991.2
2023-12-27T21:04:15.928Z,991.3
2023-12-27T21:09:18.851Z,991.4
2023-12-27T21:14:15.802Z,991.3
2023-12-27T21:24:15.809Z,991.6
2023-12-27T21:29:17.178Z,991.4
2023-12-27T21:34:15.932Z,991.3
2023-12-27T21:39:15.887Z,991.3
2023-12-27T21:44:15.814Z,991.2
2023-12-27T21:49:16.133Z,991.1
2023-12-27T21:54:15.828Z,991.0
2023-12-27T21:59:15.981Z,990.9
2023-12-27T22:04:15.776Z,991.0
2023-12-27T22:09:16.077Z,991.0
2023-12-27T22:14:15.782Z,991.1
2023-12-27T22:19:16.077Z,991.0
2023-12-27T22:24:15.869Z,990.7
2023-12-27T22:29:15.985Z,990.7
2023-12-27T22:34:15.922Z,990.6
2023-12-27T22:39:16.023Z,990.5
2023-12-27T22:44:15.794Z,990.5
2023-12-27T22:49:16.082Z,990.0
2023-12-27T22:54:15.798Z,990.2
2023-12-27T22:59:15.990Z,990.0
2023-12-27T23:04:15.869Z,990.0
2023-12-27T23:09:16.082Z,989.7
2023-12-27T23:14:15.804Z,989.8
2023-12-27T23:19:16.213Z,989.7
2023-12-27T23:24:15.834Z,989.4
2023-12-27T23:29:15.981Z,989.2
2023-12-27T23:34:15.887Z,989.0
2023-12-27T23:39:16.079Z,988.8
2023-12-27T23:44:15.831Z,988.8
2023-12-27T23:49:16.081Z,988.6
2023-12-27T23:54:15.881Z,988.6
2023-12-27T23:59:15.991Z,988.4
